sensor_id;sensor_type;location;lat;lon;timestamp;P1;durP1;ratioP1;P2;durP2;ratioP2
2610;SDS011;5612;51.134;17.058;2023-02-27T00:00:08;20.60;;;9.93;;
2610;SDS011;5612;51.134;17.058;2023-02-27T00:02:42;16.90;;;9.60;;
2610;SDS011;5612;51.134;17.058;2023-02-27T00:05:12;17.53;;;10.23;;
2610;SDS011;5612;51.134;17.058;2023-02-27T00:07:41;16.57;;;9.93;;
2610;SDS011;5612;51.134;17.058;2023-02-27T00:10:11;15.60;;;9.57;;
2610;SDS011;5612;51.134;17.058;2023-02-27T00:12:43;13.27;;;9.20;;
2610;SDS011;5612;51.134;17.058;2023-02-27T00:15:13;12.33;;;7.90;;
2610;SDS011;5612;51.134;17.058;2023-02-27T00:17:44;14.27;;;7.60;;
2610;SDS011;5612;51.134;17.058;2023-02-27T00:20:14;11.53;;;7.97;;
2610;SDS011;5612;51.134;17.058;2023-02-27T00:22:45;11.33;;;7.50;;
2610;SDS011;5612;51.134;17.058;2023-02-27T00:25:15;12.63;;;7.60;;
2610;SDS011;5612;51.134;17.058;2023-02-27T00:27:44;12.07;;;7.80;;
2610;SDS011;5612;51.134;17.058;2023-02-27T00:30:13;14.40;;;8.67;;
2610;SDS011;5612;51.134;17.058;2023-02-27T00:32:44;13.73;;;8.33;;
2610;SDS011;5612;51.134;17.058;2023-02-27T00:35:13;17.23;;;9.37;;
2610;SDS011;5612;51.134;17.058;2023-02-27T00:37:42;11.70;;;7.90;;
2610;SDS011;5612;51.134;17.058;2023-02-27T00:40:11;13.20;;;8.60;;
2610;SDS011;5612;51.134;17.058;2023-02-27T00:42:41;13.70;;;7.97;;
2610;SDS011;5612;51.134;17.058;2023-02-27T00:45:11;13.83;;;9.13;;
2610;SDS011;5612;51.134;17.058;2023-02-27T00:47:40;14.57;;;9.30;;
2610;SDS011;5612;51.134;17.058;2023-02-27T00:50:11;18.47;;;9.60;;
2610;SDS011;5612;51.134;17.058;2023-02-27T00:52:41;19.27;;;10.40;;
2610;SDS011;5612;51.134;17.058;2023-02-27T00:55:10;12.93;;;9.10;;
2610;SDS011;5612;51.134;17.058;2023-02-27T00:57:39;15.40;;;8.37;;
2610;SDS011;5612;51.134;17.058;2023-02-27T01:00:09;14.20;;;10.40;;
2610;SDS011;5612;51.134;17.058;2023-02-27T01:02:38;14.50;;;9.33;;
2610;SDS011;5612;51.134;17.058;2023-02-27T01:05:08;16.07;;;9.30;;
2610;SDS011;5612;51.134;17.058;2023-02-27T01:07:38;12.63;;;9.43;;
2610;SDS011;5612;51.134;17.058;2023-02-27T01:10:08;11.40;;;8.50;;
2610;SDS011;5612;51.134;17.058;2023-02-27T01:12:39;16.53;;;9.63;;
2610;SDS011;5612;51.134;17.058;2023-02-27T01:15:09;11.17;;;7.80;;
2610;SDS011;5612;51.134;17.058;2023-02-27T01:17:38;13.93;;;9.17;;
2610;SDS011;5612;51.134;17.058;2023-02-27T01:20:08;10.83;;;8.13;;
2610;SDS011;5612;51.134;17.058;2023-02-27T01:22:40;14.27;;;8.63;;
2610;SDS011;5612;51.134;17.058;2023-02-27T01:25:09;9.63;;;8.57;;
2610;SDS011;5612;51.134;17.058;2023-02-27T01:27:38;13.03;;;7.73;;
2610;SDS011;5612;51.134;17.058;2023-02-27T01:30:08;12.90;;;7.20;;
2610;SDS011;5612;51.134;17.058;2023-02-27T01:32:38;9.37;;;8.10;;
2610;SDS011;5612;51.134;17.058;2023-02-27T01:35:07;14.20;;;7.20;;
2610;SDS011;5612;51.134;17.058;2023-02-27T01:37:36;10.77;;;7.10;;
2610;SDS011;5612;51.134;17.058;2023-02-27T01:40:07;11.80;;;7.60;;
2610;SDS011;5612;51.134;17.058;2023-02-27T01:42:37;11.10;;;7.70;;
2610;SDS011;5612;51.134;17.058;2023-02-27T01:45:13;8.77;;;6.63;;
2610;SDS011;5612;51.134;17.058;2023-02-27T01:47:56;13.00;;;7.20;;
2610;SDS011;5612;51.134;17.058;2023-02-27T01:50:30;12.83;;;7.40;;
2610;SDS011;5612;51.134;17.058;2023-02-27T01:53:00;8.10;;;6.67;;
2610;SDS011;5612;51.134;17.058;2023-02-27T01:55:32;10.20;;;7.87;;
2610;SDS011;5612;51.134;17.058;2023-02-27T01:58:05;8.40;;;6.07;;
2610;SDS011;5612;51.134;17.058;2023-02-27T02:00:36;10.10;;;6.77;;
2610;SDS011;5612;51.134;17.058;2023-02-27T02:03:10;9.43;;;6.40;;
2610;SDS011;5612;51.134;17.058;2023-02-27T02:05:44;10.37;;;7.03;;
2610;SDS011;5612;51.134;17.058;2023-02-27T02:08:14;9.50;;;6.13;;
2610;SDS011;5612;51.134;17.058;2023-02-27T02:10:47;8.83;;;6.20;;
2610;SDS011;5612;51.134;17.058;2023-02-27T02:13:19;8.20;;;7.30;;
2610;SDS011;5612;51.134;17.058;2023-02-27T02:15:51;9.30;;;5.43;;
2610;SDS011;5612;51.134;17.058;2023-02-27T02:18:30;10.10;;;6.33;;
2610;SDS011;5612;51.134;17.058;2023-02-27T02:27:15;7.47;;;5.63;;
2610;SDS011;5612;51.134;17.058;2023-02-27T02:30:12;7.37;;;6.00;;
2610;SDS011;5612;51.134;17.058;2023-02-27T02:42:19;6.87;;;4.90;;
2610;SDS011;5612;51.134;17.058;2023-02-27T02:44:55;7.50;;;4.87;;
2610;SDS011;5612;51.134;17.058;2023-02-27T02:47:37;7.43;;;5.30;;
2610;SDS011;5612;51.134;17.058;2023-02-27T02:50:12;8.03;;;5.03;;
2610;SDS011;5612;51.134;17.058;2023-02-27T02:52:50;7.03;;;4.97;;
2610;SDS011;5612;51.134;17.058;2023-02-27T02:55:29;5.40;;;4.70;;
2610;SDS011;5612;51.134;17.058;2023-02-27T02:58:02;6.90;;;5.73;;
2610;SDS011;5612;51.134;17.058;2023-02-27T03:00:38;7.77;;;5.73;;
2610;SDS011;5612;51.134;17.058;2023-02-27T03:03:11;5.67;;;4.70;;
2610;SDS011;5612;51.134;17.058;2023-02-27T03:05:46;9.20;;;5.60;;
2610;SDS011;5612;51.134;17.058;2023-02-27T03:08:21;10.50;;;5.73;;
2610;SDS011;5612;51.134;17.058;2023-02-27T03:10:55;6.70;;;5.20;;
2610;SDS011;5612;51.134;17.058;2023-02-27T03:13:28;7.10;;;4.10;;
2610;SDS011;5612;51.134;17.058;2023-02-27T03:16:01;7.70;;;4.93;;
2610;SDS011;5612;51.134;17.058;2023-02-27T03:18:35;6.60;;;5.90;;
2610;SDS011;5612;51.134;17.058;2023-02-27T03:21:11;5.90;;;5.03;;
2610;SDS011;5612;51.134;17.058;2023-02-27T03:23:44;8.63;;;5.23;;
2610;SDS011;5612;51.134;17.058;2023-02-27T03:26:19;6.83;;;6.10;;
2610;SDS011;5612;51.134;17.058;2023-02-27T03:28:53;6.60;;;5.80;;
2610;SDS011;5612;51.134;17.058;2023-02-27T03:31:29;5.47;;;4.90;;
2610;SDS011;5612;51.134;17.058;2023-02-27T03:34:07;6.00;;;4.90;;
2610;SDS011;5612;51.134;17.058;2023-02-27T03:36:43;6.53;;;5.13;;
2610;SDS011;5612;51.134;17.058;2023-02-27T03:39:22;6.73;;;5.47;;
2610;SDS011;5612;51.134;17.058;2023-02-27T03:41:56;8.97;;;6.57;;
2610;SDS011;5612;51.134;17.058;2023-02-27T03:44:32;9.73;;;5.37;;
2610;SDS011;5612;51.134;17.058;2023-02-27T03:47:08;7.03;;;5.80;;
2610;SDS011;5612;51.134;17.058;2023-02-27T03:49:37;8.73;;;4.90;;
2610;SDS011;5612;51.134;17.058;2023-02-27T03:52:05;9.20;;;5.80;;
2610;SDS011;5612;51.134;17.058;2023-02-27T03:54:35;9.60;;;6.90;;
2610;SDS011;5612;51.134;17.058;2023-02-27T03:57:07;12.57;;;5.73;;
2610;SDS011;5612;51.134;17.058;2023-02-27T03:59:38;9.67;;;5.43;;
2610;SDS011;5612;51.134;17.058;2023-02-27T04:02:08;6.33;;;5.40;;
2610;SDS011;5612;51.134;17.058;2023-02-27T04:04:37;7.43;;;5.20;;
2610;SDS011;5612;51.134;17.058;2023-02-27T04:07:08;7.13;;;5.10;;
2610;SDS011;5612;51.134;17.058;2023-02-27T04:10:13;4.93;;;4.43;;
2610;SDS011;5612;51.134;17.058;2023-02-27T04:19:06;5.70;;;4.57;;
2610;SDS011;5612;51.134;17.058;2023-02-27T04:21:48;7.37;;;5.23;;
2610;SDS011;5612;51.134;17.058;2023-02-27T04:24:28;4.93;;;4.53;;
2610;SDS011;5612;51.134;17.058;2023-02-27T04:27:03;7.63;;;5.40;;
2610;SDS011;5612;51.134;17.058;2023-02-27T04:29:43;9.40;;;5.03;;
2610;SDS011;5612;51.134;17.058;2023-02-27T04:32:18;5.80;;;4.40;;
2610;SDS011;5612;51.134;17.058;2023-02-27T04:34:54;7.57;;;4.20;;
2610;SDS011;5612;51.134;17.058;2023-02-27T04:37:28;5.10;;;4.60;;
2610;SDS011;5612;51.134;17.058;2023-02-27T04:40:03;6.80;;;4.50;;
2610;SDS011;5612;51.134;17.058;2023-02-27T04:42:36;6.43;;;4.93;;
2610;SDS011;5612;51.134;17.058;2023-02-27T04:45:10;10.73;;;5.13;;
2610;SDS011;5612;51.134;17.058;2023-02-27T04:47:43;7.97;;;4.53;;
2610;SDS011;5612;51.134;17.058;2023-02-27T04:50:19;5.10;;;4.10;;
2610;SDS011;5612;51.134;17.058;2023-02-27T04:52:51;6.03;;;5.10;;
2610;SDS011;5612;51.134;17.058;2023-02-27T04:55:25;9.43;;;5.60;;
2610;SDS011;5612;51.134;17.058;2023-02-27T04:57:58;7.23;;;5.40;;
2610;SDS011;5612;51.134;17.058;2023-02-27T05:00:32;9.60;;;7.47;;
2610;SDS011;5612;51.134;17.058;2023-02-27T05:03:04;10.63;;;6.67;;
2610;SDS011;5612;51.134;17.058;2023-02-27T05:05:42;8.97;;;6.07;;
2610;SDS011;5612;51.134;17.058;2023-02-27T05:08:15;8.40;;;5.33;;
2610;SDS011;5612;51.134;17.058;2023-02-27T05:10:49;7.10;;;5.40;;
2610;SDS011;5612;51.134;17.058;2023-02-27T05:13:24;6.40;;;5.77;;
2610;SDS011;5612;51.134;17.058;2023-02-27T05:16:00;13.63;;;7.90;;
2610;SDS011;5612;51.134;17.058;2023-02-27T05:18:35;21.50;;;10.97;;
2610;SDS011;5612;51.134;17.058;2023-02-27T05:21:08;16.10;;;9.30;;
2610;SDS011;5612;51.134;17.058;2023-02-27T05:23:44;21.13;;;10.63;;
2610;SDS011;5612;51.134;17.058;2023-02-27T05:26:23;12.10;;;7.40;;
2610;SDS011;5612;51.134;17.058;2023-02-27T05:29:00;14.50;;;8.10;;
2610;SDS011;5612;51.134;17.058;2023-02-27T05:31:36;13.73;;;7.70;;
2610;SDS011;5612;51.134;17.058;2023-02-27T05:34:11;7.13;;;5.60;;
2610;SDS011;5612;51.134;17.058;2023-02-27T05:36:46;10.10;;;6.00;;
2610;SDS011;5612;51.134;17.058;2023-02-27T05:39:20;8.50;;;6.70;;
2610;SDS011;5612;51.134;17.058;2023-02-27T05:41:53;8.57;;;5.50;;
2610;SDS011;5612;51.134;17.058;2023-02-27T05:44:26;7.43;;;5.87;;
2610;SDS011;5612;51.134;17.058;2023-02-27T05:46:59;11.60;;;8.00;;
2610;SDS011;5612;51.134;17.058;2023-02-27T05:49:32;9.70;;;7.30;;
2610;SDS011;5612;51.134;17.058;2023-02-27T05:52:06;9.20;;;7.10;;
2610;SDS011;5612;51.134;17.058;2023-02-27T05:54:41;8.77;;;6.70;;
2610;SDS011;5612;51.134;17.058;2023-02-27T05:57:17;8.03;;;6.23;;
2610;SDS011;5612;51.134;17.058;2023-02-27T05:59:52;8.13;;;6.30;;
2610;SDS011;5612;51.134;17.058;2023-02-27T06:02:25;8.63;;;5.60;;
2610;SDS011;5612;51.134;17.058;2023-02-27T06:04:54;6.13;;;5.37;;
2610;SDS011;5612;51.134;17.058;2023-02-27T06:07:25;8.00;;;5.07;;
2610;SDS011;5612;51.134;17.058;2023-02-27T06:09:53;10.07;;;6.30;;
2610;SDS011;5612;51.134;17.058;2023-02-27T06:12:22;7.33;;;4.87;;
2610;SDS011;5612;51.134;17.058;2023-02-27T06:14:51;5.40;;;4.90;;
2610;SDS011;5612;51.134;17.058;2023-02-27T06:17:23;7.20;;;5.87;;
2610;SDS011;5612;51.134;17.058;2023-02-27T06:19:53;5.23;;;4.73;;
2610;SDS011;5612;51.134;17.058;2023-02-27T06:22:26;7.93;;;5.40;;
2610;SDS011;5612;51.134;17.058;2023-02-27T06:24:54;8.00;;;5.27;;
2610;SDS011;5612;51.134;17.058;2023-02-27T06:27:23;9.63;;;6.83;;
2610;SDS011;5612;51.134;17.058;2023-02-27T06:29:53;9.53;;;7.10;;
2610;SDS011;5612;51.134;17.058;2023-02-27T06:32:23;7.83;;;5.77;;
2610;SDS011;5612;51.134;17.058;2023-02-27T06:34:52;10.10;;;6.70;;
2610;SDS011;5612;51.134;17.058;2023-02-27T06:37:21;9.70;;;6.20;;
2610;SDS011;5612;51.134;17.058;2023-02-27T06:39:51;7.00;;;5.30;;
2610;SDS011;5612;51.134;17.058;2023-02-27T06:42:20;6.93;;;5.87;;
2610;SDS011;5612;51.134;17.058;2023-02-27T06:44:50;7.30;;;5.90;;
2610;SDS011;5612;51.134;17.058;2023-02-27T06:47:19;7.77;;;5.70;;
2610;SDS011;5612;51.134;17.058;2023-02-27T06:49:49;9.10;;;6.10;;
2610;SDS011;5612;51.134;17.058;2023-02-27T06:52:17;9.57;;;6.10;;
2610;SDS011;5612;51.134;17.058;2023-02-27T06:54:46;8.93;;;5.87;;
2610;SDS011;5612;51.134;17.058;2023-02-27T06:57:17;7.67;;;4.93;;
2610;SDS011;5612;51.134;17.058;2023-02-27T06:59:45;5.60;;;4.90;;
2610;SDS011;5612;51.134;17.058;2023-02-27T07:02:15;6.40;;;4.40;;
2610;SDS011;5612;51.134;17.058;2023-02-27T07:04:45;5.47;;;4.67;;
2610;SDS011;5612;51.134;17.058;2023-02-27T07:07:13;5.87;;;5.20;;
2610;SDS011;5612;51.134;17.058;2023-02-27T07:10:02;8.87;;;5.53;;
2610;SDS011;5612;51.134;17.058;2023-02-27T07:12:33;14.93;;;10.00;;
2610;SDS011;5612;51.134;17.058;2023-02-27T07:15:02;7.77;;;5.70;;
2610;SDS011;5612;51.134;17.058;2023-02-27T07:17:31;14.03;;;8.30;;
2610;SDS011;5612;51.134;17.058;2023-02-27T07:20:00;12.60;;;6.33;;
2610;SDS011;5612;51.134;17.058;2023-02-27T07:22:29;9.47;;;5.57;;
2610;SDS011;5612;51.134;17.058;2023-02-27T07:24:58;7.33;;;5.97;;
2610;SDS011;5612;51.134;17.058;2023-02-27T07:27:29;6.40;;;5.23;;
2610;SDS011;5612;51.134;17.058;2023-02-27T07:30:00;9.60;;;5.40;;
2610;SDS011;5612;51.134;17.058;2023-02-27T07:32:28;8.80;;;6.70;;
2610;SDS011;5612;51.134;17.058;2023-02-27T07:34:57;12.57;;;6.87;;
2610;SDS011;5612;51.134;17.058;2023-02-27T07:37:26;11.70;;;6.13;;
2610;SDS011;5612;51.134;17.058;2023-02-27T07:39:55;11.70;;;7.07;;
2610;SDS011;5612;51.134;17.058;2023-02-27T07:42:23;14.33;;;8.70;;
2610;SDS011;5612;51.134;17.058;2023-02-27T07:44:52;7.47;;;5.93;;
2610;SDS011;5612;51.134;17.058;2023-02-27T07:47:24;12.47;;;7.40;;
2610;SDS011;5612;51.134;17.058;2023-02-27T07:49:53;15.10;;;10.27;;
2610;SDS011;5612;51.134;17.058;2023-02-27T07:52:22;9.83;;;6.93;;
2610;SDS011;5612;51.134;17.058;2023-02-27T07:54:52;9.90;;;7.10;;
2610;SDS011;5612;51.134;17.058;2023-02-27T07:57:20;9.53;;;6.70;;
2610;SDS011;5612;51.134;17.058;2023-02-27T07:59:49;10.17;;;7.00;;
2610;SDS011;5612;51.134;17.058;2023-02-27T08:02:18;12.07;;;7.50;;
2610;SDS011;5612;51.134;17.058;2023-02-27T08:04:48;10.80;;;8.30;;
2610;SDS011;5612;51.134;17.058;2023-02-27T08:07:18;9.70;;;7.20;;
2610;SDS011;5612;51.134;17.058;2023-02-27T08:09:47;11.67;;;6.63;;
2610;SDS011;5612;51.134;17.058;2023-02-27T08:12:16;14.43;;;8.77;;
2610;SDS011;5612;51.134;17.058;2023-02-27T08:14:45;7.80;;;7.00;;
2610;SDS011;5612;51.134;17.058;2023-02-27T08:17:14;7.63;;;6.83;;
2610;SDS011;5612;51.134;17.058;2023-02-27T08:19:43;8.00;;;6.30;;
2610;SDS011;5612;51.134;17.058;2023-02-27T08:22:13;7.03;;;5.37;;
2610;SDS011;5612;51.134;17.058;2023-02-27T08:24:42;8.20;;;5.37;;
2610;SDS011;5612;51.134;17.058;2023-02-27T08:27:12;9.87;;;7.60;;
2610;SDS011;5612;51.134;17.058;2023-02-27T08:29:41;10.30;;;7.40;;
2610;SDS011;5612;51.134;17.058;2023-02-27T08:32:11;8.30;;;6.50;;
2610;SDS011;5612;51.134;17.058;2023-02-27T08:34:40;10.23;;;6.67;;
2610;SDS011;5612;51.134;17.058;2023-02-27T08:37:09;10.83;;;7.30;;
2610;SDS011;5612;51.134;17.058;2023-02-27T08:39:39;6.97;;;4.77;;
2610;SDS011;5612;51.134;17.058;2023-02-27T08:42:08;5.30;;;4.80;;
2610;SDS011;5612;51.134;17.058;2023-02-27T08:44:37;8.40;;;6.00;;
2610;SDS011;5612;51.134;17.058;2023-02-27T08:47:06;11.20;;;8.03;;
2610;SDS011;5612;51.134;17.058;2023-02-27T08:49:35;7.83;;;6.17;;
2610;SDS011;5612;51.134;17.058;2023-02-27T08:52:04;7.17;;;5.53;;
2610;SDS011;5612;51.134;17.058;2023-02-27T08:54:35;8.50;;;6.23;;
2610;SDS011;5612;51.134;17.058;2023-02-27T08:57:05;13.57;;;8.67;;
2610;SDS011;5612;51.134;17.058;2023-02-27T08:59:34;9.30;;;8.33;;
2610;SDS011;5612;51.134;17.058;2023-02-27T09:02:03;8.83;;;6.80;;
2610;SDS011;5612;51.134;17.058;2023-02-27T09:04:32;6.33;;;5.63;;
2610;SDS011;5612;51.134;17.058;2023-02-27T09:07:01;9.30;;;7.33;;
2610;SDS011;5612;51.134;17.058;2023-02-27T09:09:30;11.60;;;9.10;;
2610;SDS011;5612;51.134;17.058;2023-02-27T09:11:59;12.13;;;9.30;;
2610;SDS011;5612;51.134;17.058;2023-02-27T09:14:29;10.13;;;8.97;;
2610;SDS011;5612;51.134;17.058;2023-02-27T09:16:58;12.43;;;9.07;;
2610;SDS011;5612;51.134;17.058;2023-02-27T09:19:30;12.00;;;7.70;;
2610;SDS011;5612;51.134;17.058;2023-02-27T09:22:01;12.33;;;9.00;;
2610;SDS011;5612;51.134;17.058;2023-02-27T09:24:30;7.40;;;6.47;;
2610;SDS011;5612;51.134;17.058;2023-02-27T09:27:01;11.50;;;7.83;;
2610;SDS011;5612;51.134;17.058;2023-02-27T09:29:33;10.30;;;5.87;;
2610;SDS011;5612;51.134;17.058;2023-02-27T09:32:02;9.70;;;5.80;;
2610;SDS011;5612;51.134;17.058;2023-02-27T09:34:32;6.80;;;5.20;;
2610;SDS011;5612;51.134;17.058;2023-02-27T09:37:01;9.43;;;6.50;;
2610;SDS011;5612;51.134;17.058;2023-02-27T09:39:30;5.90;;;5.20;;
2610;SDS011;5612;51.134;17.058;2023-02-27T09:41:59;6.10;;;5.00;;
2610;SDS011;5612;51.134;17.058;2023-02-27T09:44:32;12.43;;;5.77;;
2610;SDS011;5612;51.134;17.058;2023-02-27T09:47:17;6.60;;;5.80;;
2610;SDS011;5612;51.134;17.058;2023-02-27T09:52:49;6.37;;;5.30;;
2610;SDS011;5612;51.134;17.058;2023-02-27T09:55:18;6.03;;;5.43;;
2610;SDS011;5612;51.134;17.058;2023-02-27T09:57:51;12.80;;;8.10;;
2610;SDS011;5612;51.134;17.058;2023-02-27T10:00:36;7.27;;;6.23;;
2610;SDS011;5612;51.134;17.058;2023-02-27T10:03:17;5.53;;;5.03;;
2610;SDS011;5612;51.134;17.058;2023-02-27T10:06:04;13.70;;;7.30;;
2610;SDS011;5612;51.134;17.058;2023-02-27T10:08:43;5.47;;;4.60;;
2610;SDS011;5612;51.134;17.058;2023-02-27T10:11:20;4.40;;;4.00;;
2610;SDS011;5612;51.134;17.058;2023-02-27T10:13:56;6.43;;;4.43;;
2610;SDS011;5612;51.134;17.058;2023-02-27T10:16:31;8.50;;;5.73;;
2610;SDS011;5612;51.134;17.058;2023-02-27T10:19:02;5.70;;;5.20;;
2610;SDS011;5612;51.134;17.058;2023-02-27T10:21:34;7.97;;;5.53;;
2610;SDS011;5612;51.134;17.058;2023-02-27T10:24:10;7.47;;;5.10;;
2610;SDS011;5612;51.134;17.058;2023-02-27T10:26:44;9.13;;;6.73;;
2610;SDS011;5612;51.134;17.058;2023-02-27T10:29:16;6.27;;;5.57;;
2610;SDS011;5612;51.134;17.058;2023-02-27T10:31:51;7.63;;;5.63;;
2610;SDS011;5612;51.134;17.058;2023-02-27T10:34:24;6.27;;;5.03;;
2610;SDS011;5612;51.134;17.058;2023-02-27T10:36:56;6.13;;;5.10;;
2610;SDS011;5612;51.134;17.058;2023-02-27T10:39:27;8.73;;;6.50;;
2610;SDS011;5612;51.134;17.058;2023-02-27T10:42:05;8.33;;;7.10;;
2610;SDS011;5612;51.134;17.058;2023-02-27T10:44:36;10.60;;;6.77;;
2610;SDS011;5612;51.134;17.058;2023-02-27T10:47:07;4.63;;;4.20;;
2610;SDS011;5612;51.134;17.058;2023-02-27T10:49:40;3.30;;;2.80;;
2610;SDS011;5612;51.134;17.058;2023-02-27T10:52:10;5.60;;;3.83;;
2610;SDS011;5612;51.134;17.058;2023-02-27T10:54:40;3.93;;;3.63;;
2610;SDS011;5612;51.134;17.058;2023-02-27T10:57:20;4.07;;;3.77;;
2610;SDS011;5612;51.134;17.058;2023-02-27T10:59:54;5.73;;;5.23;;
2610;SDS011;5612;51.134;17.058;2023-02-27T11:02:28;2.90;;;2.70;;
2610;SDS011;5612;51.134;17.058;2023-02-27T11:05:03;2.87;;;2.67;;
2610;SDS011;5612;51.134;17.058;2023-02-27T11:07:35;3.30;;;3.10;;
2610;SDS011;5612;51.134;17.058;2023-02-27T11:10:14;3.87;;;3.47;;
2610;SDS011;5612;51.134;17.058;2023-02-27T11:12:56;4.00;;;3.40;;
2610;SDS011;5612;51.134;17.058;2023-02-27T11:15:27;4.00;;;3.73;;
2610;SDS011;5612;51.134;17.058;2023-02-27T11:20:53;3.93;;;3.57;;
2610;SDS011;5612;51.134;17.058;2023-02-27T11:23:36;3.03;;;2.83;;
2610;SDS011;5612;51.134;17.058;2023-02-27T11:26:16;4.40;;;4.00;;
2610;SDS011;5612;51.134;17.058;2023-02-27T11:29:02;7.20;;;5.50;;
2610;SDS011;5612;51.134;17.058;2023-02-27T11:31:44;5.10;;;4.60;;
2610;SDS011;5612;51.134;17.058;2023-02-27T11:34:23;8.63;;;3.60;;
2610;SDS011;5612;51.134;17.058;2023-02-27T11:36:56;2.93;;;2.63;;
2610;SDS011;5612;51.134;17.058;2023-02-27T11:39:32;7.40;;;2.97;;
2610;SDS011;5612;51.134;17.058;2023-02-27T11:42:10;3.20;;;2.50;;
2610;SDS011;5612;51.134;17.058;2023-02-27T11:44:53;3.93;;;3.53;;
2610;SDS011;5612;51.134;17.058;2023-02-27T11:47:26;3.83;;;2.40;;
2610;SDS011;5612;51.134;17.058;2023-02-27T11:50:04;4.23;;;3.40;;
2610;SDS011;5612;51.134;17.058;2023-02-27T11:53:02;3.87;;;3.40;;
2610;SDS011;5612;51.134;17.058;2023-02-27T11:55:39;2.47;;;2.27;;
2610;SDS011;5612;51.134;17.058;2023-02-27T11:58:10;2.97;;;2.67;;
2610;SDS011;5612;51.134;17.058;2023-02-27T12:00:42;2.70;;;2.50;;
2610;SDS011;5612;51.134;17.058;2023-02-27T12:03:18;2.80;;;2.60;;
2610;SDS011;5612;51.134;17.058;2023-02-27T12:05:52;4.30;;;3.10;;
2610;SDS011;5612;51.134;17.058;2023-02-27T12:08:27;10.93;;;6.90;;
2610;SDS011;5612;51.134;17.058;2023-02-27T12:11:00;6.80;;;6.10;;
2610;SDS011;5612;51.134;17.058;2023-02-27T12:13:40;4.93;;;4.53;;
2610;SDS011;5612;51.134;17.058;2023-02-27T12:16:15;3.80;;;3.50;;
2610;SDS011;5612;51.134;17.058;2023-02-27T12:18:49;4.37;;;3.97;;
2610;SDS011;5612;51.134;17.058;2023-02-27T12:21:24;5.30;;;3.83;;
2610;SDS011;5612;51.134;17.058;2023-02-27T12:23:59;5.73;;;4.57;;
2610;SDS011;5612;51.134;17.058;2023-02-27T12:26:32;5.13;;;4.20;;
2610;SDS011;5612;51.134;17.058;2023-02-27T12:29:04;5.30;;;4.60;;
2610;SDS011;5612;51.134;17.058;2023-02-27T12:31:41;4.00;;;3.67;;
2610;SDS011;5612;51.134;17.058;2023-02-27T12:34:23;5.47;;;4.33;;
2610;SDS011;5612;51.134;17.058;2023-02-27T12:36:57;5.63;;;4.80;;
2610;SDS011;5612;51.134;17.058;2023-02-27T12:39:29;5.23;;;4.80;;
2610;SDS011;5612;51.134;17.058;2023-02-27T12:45:01;7.10;;;6.40;;
2610;SDS011;5612;51.134;17.058;2023-02-27T12:47:58;4.23;;;3.93;;
2610;SDS011;5612;51.134;17.058;2023-02-27T12:50:42;2.57;;;2.40;;
2610;SDS011;5612;51.134;17.058;2023-02-27T12:53:22;2.90;;;2.70;;
2610;SDS011;5612;51.134;17.058;2023-02-27T12:56:11;2.80;;;2.60;;
2610;SDS011;5612;51.134;17.058;2023-02-27T12:58:46;3.90;;;2.70;;
2610;SDS011;5612;51.134;17.058;2023-02-27T13:01:25;3.27;;;1.70;;
2610;SDS011;5612;51.134;17.058;2023-02-27T13:04:03;1.57;;;1.50;;
2610;SDS011;5612;51.134;17.058;2023-02-27T13:06:43;2.43;;;2.10;;
2610;SDS011;5612;51.134;17.058;2023-02-27T13:09:21;2.17;;;2.00;;
2610;SDS011;5612;51.134;17.058;2023-02-27T13:12:01;2.20;;;1.97;;
2610;SDS011;5612;51.134;17.058;2023-02-27T13:14:38;2.03;;;1.93;;
2610;SDS011;5612;51.134;17.058;2023-02-27T13:17:16;2.47;;;1.50;;
2610;SDS011;5612;51.134;17.058;2023-02-27T13:19:50;2.20;;;1.87;;
2610;SDS011;5612;51.134;17.058;2023-02-27T13:22:24;2.90;;;2.70;;
2610;SDS011;5612;51.134;17.058;2023-02-27T13:25:02;3.37;;;2.90;;
2610;SDS011;5612;51.134;17.058;2023-02-27T13:27:37;5.00;;;3.73;;
2610;SDS011;5612;51.134;17.058;2023-02-27T13:30:11;4.53;;;3.93;;
2610;SDS011;5612;51.134;17.058;2023-02-27T13:32:45;7.00;;;4.57;;
2610;SDS011;5612;51.134;17.058;2023-02-27T13:35:22;6.77;;;6.07;;
2610;SDS011;5612;51.134;17.058;2023-02-27T13:37:57;6.20;;;5.30;;
2610;SDS011;5612;51.134;17.058;2023-02-27T13:40:34;5.50;;;4.90;;
2610;SDS011;5612;51.134;17.058;2023-02-27T13:43:26;6.97;;;6.17;;
2610;SDS011;5612;51.134;17.058;2023-02-27T13:45:58;7.27;;;6.57;;
2610;SDS011;5612;51.134;17.058;2023-02-27T13:54:26;8.83;;;7.47;;
2610;SDS011;5612;51.134;17.058;2023-02-27T13:59:52;8.93;;;7.30;;
2610;SDS011;5612;51.134;17.058;2023-02-27T14:02:43;8.37;;;7.57;;
2610;SDS011;5612;51.134;17.058;2023-02-27T14:05:27;7.87;;;7.07;;
2610;SDS011;5612;51.134;17.058;2023-02-27T14:08:07;9.23;;;7.60;;
2610;SDS011;5612;51.134;17.058;2023-02-27T14:10:49;9.63;;;8.73;;
2610;SDS011;5612;51.134;17.058;2023-02-27T14:19:25;12.03;;;8.33;;
2610;SDS011;5612;51.134;17.058;2023-02-27T14:25:18;8.63;;;7.83;;
2610;SDS011;5612;51.134;17.058;2023-02-27T14:27:52;7.63;;;6.87;;
2610;SDS011;5612;51.134;17.058;2023-02-27T14:30:29;7.63;;;6.90;;
2610;SDS011;5612;51.134;17.058;2023-02-27T14:33:02;7.73;;;7.03;;
2610;SDS011;5612;51.134;17.058;2023-02-27T14:35:38;8.20;;;7.60;;
2610;SDS011;5612;51.134;17.058;2023-02-27T14:38:12;7.83;;;6.50;;
2610;SDS011;5612;51.134;17.058;2023-02-27T14:40:47;7.93;;;7.13;;
2610;SDS011;5612;51.134;17.058;2023-02-27T14:43:27;7.10;;;6.40;;
2610;SDS011;5612;51.134;17.058;2023-02-27T14:46:10;6.00;;;5.40;;
2610;SDS011;5612;51.134;17.058;2023-02-27T14:48:42;5.00;;;4.50;;
2610;SDS011;5612;51.134;17.058;2023-02-27T14:51:12;5.03;;;4.53;;
2610;SDS011;5612;51.134;17.058;2023-02-27T14:53:43;4.37;;;4.07;;
2610;SDS011;5612;51.134;17.058;2023-02-27T14:56:17;5.47;;;4.97;;
2610;SDS011;5612;51.134;17.058;2023-02-27T14:58:46;5.80;;;4.80;;
2610;SDS011;5612;51.134;17.058;2023-02-27T15:01:33;5.13;;;4.60;;
2610;SDS011;5612;51.134;17.058;2023-02-27T15:04:04;5.60;;;4.70;;
2610;SDS011;5612;51.134;17.058;2023-02-27T15:06:35;5.30;;;4.80;;
2610;SDS011;5612;51.134;17.058;2023-02-27T15:09:13;5.27;;;4.77;;
2610;SDS011;5612;51.134;17.058;2023-02-27T15:11:49;5.07;;;4.57;;
2610;SDS011;5612;51.134;17.058;2023-02-27T15:14:30;5.63;;;4.80;;
2610;SDS011;5612;51.134;17.058;2023-02-27T15:17:03;9.13;;;7.97;;
2610;SDS011;5612;51.134;17.058;2023-02-27T15:19:44;13.73;;;12.73;;
2610;SDS011;5612;51.134;17.058;2023-02-27T15:22:16;10.60;;;9.60;;
2610;SDS011;5612;51.134;17.058;2023-02-27T15:25:03;7.53;;;6.80;;
2610;SDS011;5612;51.134;17.058;2023-02-27T15:27:33;8.40;;;7.03;;
2610;SDS011;5612;51.134;17.058;2023-02-27T15:30:04;9.53;;;7.53;;
2610;SDS011;5612;51.134;17.058;2023-02-27T15:32:37;7.73;;;6.93;;
2610;SDS011;5612;51.134;17.058;2023-02-27T15:35:11;7.53;;;6.70;;
2610;SDS011;5612;51.134;17.058;2023-02-27T15:37:44;7.10;;;6.33;;
2610;SDS011;5612;51.134;17.058;2023-02-27T15:40:18;7.87;;;7.07;;
2610;SDS011;5612;51.134;17.058;2023-02-27T15:42:48;8.33;;;7.37;;
2610;SDS011;5612;51.134;17.058;2023-02-27T15:45:19;9.33;;;7.83;;
2610;SDS011;5612;51.134;17.058;2023-02-27T15:47:51;7.53;;;6.90;;
2610;SDS011;5612;51.134;17.058;2023-02-27T15:50:23;7.70;;;6.83;;
2610;SDS011;5612;51.134;17.058;2023-02-27T15:52:57;8.57;;;7.10;;
2610;SDS011;5612;51.134;17.058;2023-02-27T15:55:30;6.40;;;5.30;;
2610;SDS011;5612;51.134;17.058;2023-02-27T15:58:04;8.37;;;7.50;;
2610;SDS011;5612;51.134;17.058;2023-02-27T16:00:44;12.77;;;11.50;;
2610;SDS011;5612;51.134;17.058;2023-02-27T16:03:16;11.13;;;9.47;;
2610;SDS011;5612;51.134;17.058;2023-02-27T16:05:50;8.70;;;6.73;;
2610;SDS011;5612;51.134;17.058;2023-02-27T16:08:20;7.50;;;6.60;;
2610;SDS011;5612;51.134;17.058;2023-02-27T16:10:49;7.53;;;6.47;;
2610;SDS011;5612;51.134;17.058;2023-02-27T16:13:20;7.67;;;6.83;;
2610;SDS011;5612;51.134;17.058;2023-02-27T16:15:57;10.50;;;7.47;;
2610;SDS011;5612;51.134;17.058;2023-02-27T16:18:30;9.27;;;7.00;;
2610;SDS011;5612;51.134;17.058;2023-02-27T16:21:09;8.83;;;7.93;;
2610;SDS011;5612;51.134;17.058;2023-02-27T16:23:41;15.80;;;8.77;;